createdAt,value
2019-01-19T00:01:40.510Z,99771.67
2019-01-19T00:07:59.040Z,99767.89
2019-01-19T00:14:14.121Z,99758.90
2019-01-19T00:20:47.846Z,99750.66
2019-01-19T00:27:17.887Z,99750.19
2019-01-19T00:33:41.701Z,99750.66
2019-01-19T00:40:28.657Z,99748.83
2019-01-19T00:46:52.507Z,99751.77
2019-01-19T00:53:10.821Z,99758.13
2019-01-19T00:59:21.748Z,99744.41
2019-01-19T01:05:31.048Z,99747.98
2019-01-19T01:11:42.992Z,99748.73
2019-01-19T01:17:51.764Z,99750.08
2019-01-19T01:24:21.966Z,99751.50
2019-01-19T01:30:50.935Z,99752.39
2019-01-19T01:37:00.190Z,99752.65
2019-01-19T01:43:31.347Z,99750.27
2019-01-19T01:49:58.383Z,99738.11
2019-01-19T01:56:03.401Z,99738.62
2019-01-19T02:02:27.106Z,99737.78
2019-01-19T02:08:42.125Z,99734.77
2019-01-19T02:15:10.662Z,99726.52
2019-01-19T02:21:25.354Z,99732.54
2019-01-19T02:27:56.945Z,99728.99
2019-01-19T02:34:17.923Z,99719.45
2019-01-19T02:40:30.011Z,99720.88
2019-01-19T02:47:00.347Z,99711.92
2019-01-19T02:53:20.925Z,99716.19
2019-01-19T02:59:30.186Z,99700.98
2019-01-19T03:05:45.712Z,99704.30
2019-01-19T03:12:28.171Z,99699.06
2019-01-19T03:18:46.145Z,99699.26
2019-01-19T03:25:17.716Z,99697.33
2019-01-19T03:31:35.910Z,99690.79
2019-01-19T03:38:12.056Z,99693.76
2019-01-19T03:44:35.875Z,99688.64
2019-01-19T03:50:59.969Z,99677.20
2019-01-19T03:57:26.988Z,99679.97
2019-01-19T04:04:07.847Z,99673.25
2019-01-19T04:10:34.605Z,99673.92
2019-01-19T04:16:49.667Z,99670.47
2019-01-19T04:22:54.621Z,99673.67
2019-01-19T04:29:01.452Z,99664.81
2019-01-19T04:35:07.372Z,99660.56
2019-01-19T04:41:12.000Z,99655.05
2019-01-19T04:47:16.614Z,99656.66
2019-01-19T04:53:21.202Z,99659.41
2019-01-19T04:59:25.752Z,99659.34
2019-01-19T05:05:30.289Z,99662.59
2019-01-19T05:11:35.590Z,99660.05
2019-01-19T05:17:40.300Z,99660.41
2019-01-19T05:23:44.959Z,99658.92
2019-01-19T05:29:49.512Z,99657.81
2019-01-19T05:35:54.081Z,99654.72
2019-01-19T05:41:58.847Z,99654.63
2019-01-19T05:48:03.560Z,99661.27
2019-01-19T05:54:08.153Z,99658.48
2019-01-19T06:00:21.188Z,99655.92
2019-01-19T06:06:26.144Z,99659.57
2019-01-19T06:12:30.942Z,99657.90
2019-01-19T06:18:36.735Z,99660.58
2019-01-19T06:24:41.508Z,99661.78
2019-01-19T06:30:46.187Z,99668.16
2019-01-19T06:36:55.097Z,99659.27
2019-01-19T06:42:57.172Z,99665.57
2019-01-19T06:49:01.864Z,99656.88
2019-01-19T06:55:11.335Z,99660.86
2019-01-19T07:01:15.970Z,99663.00
2019-01-19T07:07:21.928Z,99666.82
2019-01-19T07:13:26.651Z,99666.34
2019-01-19T07:19:31.267Z,99669.02
2019-01-19T07:25:35.891Z,99669.64
2019-01-19T07:31:40.583Z,99666.14
2019-01-19T07:37:45.233Z,99661.41
2019-01-19T07:43:49.852Z,99672.16
2019-01-19T07:49:56.247Z,99674.14
2019-01-19T07:56:00.922Z,99682.66
2019-01-19T08:02:05.661Z,99683.17
2019-01-19T08:08:11.777Z,99688.78
2019-01-19T08:14:16.434Z,99685.20
2019-01-19T08:20:21.230Z,99679.30
2019-01-19T08:26:25.778Z,99684.23
2019-01-19T08:32:30.422Z,99687.38
2019-01-19T08:38:35.204Z,99685.58
2019-01-19T08:44:39.917Z,99691.44
2019-01-19T08:50:44.578Z,99688.09
2019-01-19T08:56:49.165Z,99686.34
2019-01-19T09:02:54.999Z,99689.67
2019-01-19T09:08:59.608Z,99675.97
2019-01-19T09:15:06.371Z,99674.82
2019-01-19T09:21:11.095Z,99678.02
2019-01-19T09:27:17.110Z,99673.64
2019-01-19T09:33:21.730Z,99669.02
2019-01-19T09:39:26.328Z,99670.16
2019-01-19T09:45:32.566Z,99668.98
2019-01-19T09:51:37.267Z,99676.14
2019-01-19T09:57:42.077Z,99674.08
2019-01-19T10:03:46.734Z,99664.64
2019-01-19T10:09:51.456Z,99657.68
2019-01-19T10:15:56.100Z,99656.72
2019-01-19T10:22:00.976Z,99656.55
2019-01-19T10:28:06.259Z,99660.48
2019-01-19T10:34:12.433Z,99657.80
2019-01-19T10:40:18.840Z,99649.81
2019-01-19T10:46:23.416Z,99647.22
2019-01-19T10:52:28.228Z,99649.19
2019-01-19T10:58:34.050Z,99641.44
2019-01-19T11:04:38.953Z,99638.16
2019-01-19T11:10:43.839Z,99638.51
2019-01-19T11:16:48.536Z,99634.30
2019-01-19T11:22:53.421Z,99620.52
2019-01-19T11:28:57.969Z,99611.53
2019-01-19T11:35:02.587Z,99604.41
2019-01-19T11:41:07.377Z,99598.32
2019-01-19T11:47:12.082Z,99588.80
2019-01-19T11:53:16.749Z,99571.41
2019-01-19T11:59:21.301Z,99566.89
2019-01-19T12:05:26.075Z,99567.34
2019-01-19T12:11:32.719Z,99560.07
2019-01-19T12:17:37.528Z,99554.28
2019-01-19T12:23:42.357Z,99548.25
2019-01-19T12:29:46.969Z,99539.34
2019-01-19T12:35:51.557Z,99532.20
2019-01-19T12:41:56.183Z,99527.47
2019-01-19T12:48:00.899Z,99521.78
2019-01-19T12:54:06.704Z,99516.54
2019-01-19T13:00:24.553Z,99510.63
2019-01-19T13:06:36.769Z,99506.66
2019-01-19T13:12:41.614Z,99504.92
2019-01-19T13:18:56.687Z,99498.37
2019-01-19T13:25:24.658Z,99486.64
2019-01-19T13:31:57.595Z,99486.34
2019-01-19T13:38:24.490Z,99478.25
2019-01-19T13:44:51.615Z,99477.84
2019-01-19T13:51:21.777Z,99469.51
2019-01-19T13:57:32.320Z,99470.02
2019-01-19T14:03:44.441Z,99479.01
2019-01-19T14:10:16.173Z,99470.52
2019-01-19T14:17:11.841Z,99462.38
2019-01-19T14:23:32.751Z,99457.70
2019-01-19T14:29:56.071Z,99450.52
2019-01-19T14:36:56.136Z,99440.09
2019-01-19T14:43:35.245Z,99429.58
2019-01-19T14:50:16.799Z,99430.45
2019-01-19T14:56:50.869Z,99426.35
2019-01-19T15:03:24.577Z,99419.40
2019-01-19T15:09:36.281Z,99408.98
2019-01-19T15:16:03.557Z,99411.33
2019-01-19T15:22:49.841Z,99409.84
2019-01-19T15:29:38.934Z,99412.44
2019-01-19T15:35:56.968Z,99412.55
2019-01-19T15:42:35.818Z,99410.67
2019-01-19T15:48:59.480Z,99401.82
2019-01-19T15:55:14.429Z,99395.48
2019-01-19T16:02:00.400Z,99399.23
2019-01-19T16:08:36.242Z,99399.30
2019-01-19T16:15:16.552Z,99405.50
2019-01-19T16:21:40.285Z,99397.43
2019-01-19T16:28:23.466Z,99387.17
2019-01-19T16:34:56.463Z,99388.77
2019-01-19T16:41:44.547Z,99390.11
2019-01-19T16:48:08.368Z,99381.59
2019-01-19T16:54:26.314Z,99383.87
2019-01-19T17:00:51.914Z,99382.67
2019-01-19T17:07:07.074Z,99377.78
2019-01-19T17:13:51.966Z,99374.25
2019-01-19T17:20:16.069Z,99372.81
2019-01-19T17:26:37.366Z,99369.14
2019-01-19T17:33:11.856Z,99373.34
2019-01-19T17:39:44.739Z,99371.00
2019-01-19T17:46:05.756Z,99376.23
2019-01-19T17:52:40.601Z,99372.55
2019-01-19T17:58:58.336Z,99379.36
2019-01-19T18:05:16.209Z,99375.65
2019-01-19T18:11:59.000Z,99382.11
2019-01-19T18:18:28.427Z,99372.81
2019-01-19T18:24:51.717Z,99377.38
2019-01-19T18:31:39.874Z,99372.56
2019-01-19T18:37:54.805Z,99365.88
2019-01-19T18:44:06.618Z,99376.16
2019-01-19T18:50:48.324Z,99374.84
2019-01-19T18:57:23.857Z,99369.97
2019-01-19T19:03:51.249Z,99367.34
2019-01-19T19:10:21.372Z,99369.40
2019-01-19T19:16:36.467Z,99370.02
2019-01-19T19:22:57.562Z,99365.47
2019-01-19T19:29:27.675Z,99361.52
2019-01-19T19:36:00.786Z,99362.70
2019-01-19T19:42:27.925Z,99361.27
2019-01-19T19:48:43.116Z,99359.70
2019-01-19T19:54:54.818Z,99361.72
2019-01-19T20:00:59.695Z,99353.00
2019-01-19T20:07:04.594Z,99352.97
2019-01-19T20:13:09.452Z,99344.61
2019-01-19T20:19:14.002Z,99342.34
2019-01-19T20:25:18.603Z,99344.39
2019-01-19T20:31:23.189Z,99337.83
2019-01-19T20:37:27.867Z,99338.39
2019-01-19T20:43:33.830Z,99340.88
2019-01-19T20:49:38.539Z,99336.59
2019-01-19T20:55:43.160Z,99345.52
2019-01-19T21:01:47.716Z,99341.84
2019-01-19T21:07:52.272Z,99340.74
2019-01-19T21:13:56.845Z,99341.92
2019-01-19T21:20:01.379Z,99347.30
2019-01-19T21:26:06.016Z,99345.15
2019-01-19T21:32:10.588Z,99343.55
2019-01-19T21:38:15.170Z,99342.88
2019-01-19T21:44:19.742Z,99346.27
2019-01-19T21:50:25.765Z,99343.08
2019-01-19T21:56:30.295Z,99339.34
2019-01-19T22:02:34.853Z,99342.86
2019-01-19T22:08:39.418Z,99338.05
2019-01-19T22:14:44.193Z,99337.63
2019-01-19T22:20:48.754Z,99337.25
2019-01-19T22:27:00.167Z,99338.41
2019-01-19T22:33:05.055Z,99341.09
2019-01-19T22:39:09.684Z,99346.81
2019-01-19T22:45:16.546Z,99338.15
2019-01-19T22:51:21.154Z,99336.66
2019-01-19T22:57:25.775Z,99336.69
2019-01-19T23:03:32.876Z,99337.11
2019-01-19T23:09:37.715Z,99336.98
2019-01-19T23:15:42.320Z,99340.56
2019-01-19T23:21:46.892Z,99335.34
2019-01-19T23:27:51.421Z,99341.95
2019-01-19T23:33:56.043Z,99338.89
2019-01-19T23:40:01.815Z,99331.42
2019-01-19T23:46:07.771Z,99335.73
2019-01-19T23:52:12.308Z,99337.03
2019-01-19T23:58:16.852Z,99330.11
